sensor_id;sensor_type;location;lat;lon;timestamp;pressure;altitude;pressure_sealevel;temperature;humidity
51369;BME280;37459;51.416;5.502;2023-04-30T07:54:21;100764.06;;;10.74;58.56
51369;BME280;37459;51.416;5.502;2023-04-30T07:56:48;100772.81;;;10.63;57.41
51369;BME280;37459;51.416;5.502;2023-04-30T07:59:14;100769.09;;;10.51;56.58
51369;BME280;37459;51.416;5.502;2023-04-30T08:01:41;100769.75;;;10.39;55.98
51369;BME280;37459;51.416;5.502;2023-04-30T08:04:08;100753.81;;;10.18;55.08
51369;BME280;37459;51.416;5.502;2023-04-30T08:06:34;100751.75;;;10.06;55.60
51369;BME280;37459;51.416;5.502;2023-04-30T08:09:00;100756.91;;;10.01;55.71
51369;BME280;37459;51.416;5.502;2023-04-30T08:11:28;100756.28;;;9.99;56.46
51369;BME280;37459;51.416;5.502;2023-04-30T08:13:54;100750.72;;;9.94;56.12
51369;BME280;37459;51.416;5.502;2023-04-30T08:16:21;100754.03;;;9.96;56.28
51369;BME280;37459;51.416;5.502;2023-04-30T08:18:47;100755.91;;;9.96;56.12
51369;BME280;37459;51.416;5.502;2023-04-30T08:21:14;100758.16;;;9.92;55.87
51369;BME280;37459;51.416;5.502;2023-04-30T08:23:40;100757.53;;;9.90;55.75
51369;BME280;37459;51.416;5.502;2023-04-30T08:26:06;100757.16;;;9.93;56.22
51369;BME280;37459;51.416;5.502;2023-04-30T08:28:34;100761.06;;;9.91;55.79
51369;BME280;37459;51.416;5.502;2023-04-30T08:31:00;100760.88;;;9.92;55.59
51369;BME280;37459;51.416;5.502;2023-04-30T08:33:27;100759.41;;;9.90;56.70
51369;BME280;37459;51.416;5.502;2023-04-30T08:35:53;100760.66;;;9.94;57.18
51369;BME280;37459;51.416;5.502;2023-04-30T08:38:20;100752.97;;;9.91;57.53
51369;BME280;37459;51.416;5.502;2023-04-30T08:40:47;100752.59;;;9.94;57.38
51369;BME280;37459;51.416;5.502;2023-04-30T08:43:17;100742.63;;;9.94;56.95
51369;BME280;37459;51.416;5.502;2023-04-30T08:45:45;100745.53;;;9.93;56.55
51369;BME280;37459;51.416;5.502;2023-04-30T08:48:11;100744.91;;;9.91;55.31
51369;BME280;37459;51.416;5.502;2023-04-30T08:50:39;100744.72;;;9.92;55.28
51369;BME280;37459;51.416;5.502;2023-04-30T08:53:07;100748.03;;;9.94;55.84
51369;BME280;37459;51.416;5.502;2023-04-30T08:55:34;100745.13;;;9.96;56.14
51369;BME280;37459;51.416;5.502;2023-04-30T08:58:01;100754.22;;;10.01;56.57
51369;BME280;37459;51.416;5.502;2023-04-30T09:00:30;100736.00;;;10.03;56.72
51369;BME280;37459;51.416;5.502;2023-04-30T09:02:59;100746.13;;;10.08;56.73
51369;BME280;37459;51.416;5.502;2023-04-30T09:05:25;100743.84;;;10.12;56.61
51369;BME280;37459;51.416;5.502;2023-04-30T09:07:52;100748.63;;;10.16;56.69
51369;BME280;37459;51.416;5.502;2023-04-30T09:10:18;100741.97;;;10.19;56.73
51369;BME280;37459;51.416;5.502;2023-04-30T09:12:57;100733.88;;;10.19;56.79
51369;BME280;37459;51.416;5.502;2023-04-30T09:15:23;100729.75;;;10.23;56.82
51369;BME280;37459;51.416;5.502;2023-04-30T09:17:49;100721.66;;;10.23;56.82
51369;BME280;37459;51.416;5.502;2023-04-30T09:20:17;100730.97;;;10.27;57.08
51369;BME280;37459;51.416;5.502;2023-04-30T09:22:44;100727.91;;;10.30;57.00
51369;BME280;37459;51.416;5.502;2023-04-30T09:25:11;100730.16;;;10.33;56.98
51369;BME280;37459;51.416;5.502;2023-04-30T09:27:37;100732.66;;;10.35;57.07
51369;BME280;37459;51.416;5.502;2023-04-30T09:30:04;100728.72;;;10.37;57.25
51369;BME280;37459;51.416;5.502;2023-04-30T09:32:32;100729.94;;;10.41;57.15
51369;BME280;37459;51.416;5.502;2023-04-30T09:34:58;100737.81;;;10.43;57.18
51369;BME280;37459;51.416;5.502;2023-04-30T09:37:35;100736.56;;;10.45;57.07
51369;BME280;37459;51.416;5.502;2023-04-30T09:40:01;100733.44;;;10.48;57.11
51369;BME280;37459;51.416;5.502;2023-04-30T09:42:28;100730.75;;;10.48;57.09
51369;BME280;37459;51.416;5.502;2023-04-30T09:44:55;100730.31;;;10.52;57.16
51369;BME280;37459;51.416;5.502;2023-04-30T09:47:21;100737.16;;;10.54;56.99
51369;BME280;37459;51.416;5.502;2023-04-30T09:49:48;100740.25;;;10.58;56.90
51369;BME280;37459;51.416;5.502;2023-04-30T09:52:16;100731.13;;;10.59;57.13
51369;BME280;37459;51.416;5.502;2023-04-30T09:54:44;100730.09;;;10.60;57.00
51369;BME280;37459;51.416;5.502;2023-04-30T09:57:12;100718.28;;;10.61;56.95
51369;BME280;37459;51.416;5.502;2023-04-30T09:59:41;100726.13;;;10.62;56.81
51369;BME280;37459;51.416;5.502;2023-04-30T10:02:08;100728.63;;;10.64;56.89
51369;BME280;37459;51.416;5.502;2023-04-30T10:04:35;100729.25;;;10.66;57.13
51369;BME280;37459;51.416;5.502;2023-04-30T10:07:03;100716.81;;;10.65;57.05
51369;BME280;37459;51.416;5.502;2023-04-30T10:09:33;100720.13;;;10.67;56.92
51369;BME280;37459;51.416;5.502;2023-04-30T10:12:03;100710.97;;;10.68;56.96
51369;BME280;37459;51.416;5.502;2023-04-30T10:14:32;100709.34;;;10.67;57.23
51369;BME280;37459;51.416;5.502;2023-04-30T10:17:01;100707.22;;;10.69;57.16
51369;BME280;37459;51.416;5.502;2023-04-30T10:19:29;100715.94;;;10.71;57.05
51369;BME280;37459;51.416;5.502;2023-04-30T10:21:56;100719.25;;;10.73;57.13
51369;BME280;37459;51.416;5.502;2023-04-30T10:24:22;100713.84;;;10.73;56.96
51369;BME280;37459;51.416;5.502;2023-04-30T10:26:49;100712.81;;;10.74;56.82
51369;BME280;37459;51.416;5.502;2023-04-30T10:29:17;100703.47;;;10.77;56.89
51369;BME280;37459;51.416;5.502;2023-04-30T10:31:44;100704.28;;;10.77;56.84
51369;BME280;37459;51.416;5.502;2023-04-30T10:34:13;100701.38;;;10.79;57.06
51369;BME280;37459;51.416;5.502;2023-04-30T10:36:44;100696.00;;;10.79;57.09
51369;BME280;37459;51.416;5.502;2023-04-30T10:39:12;100694.13;;;10.79;56.84
51369;BME280;37459;51.416;5.502;2023-04-30T10:41:39;100691.22;;;10.81;56.90
51369;BME280;37459;51.416;5.502;2023-04-30T10:44:09;100683.75;;;10.83;56.94
51369;BME280;37459;51.416;5.502;2023-04-30T10:46:37;100688.94;;;10.84;56.93
51369;BME280;37459;51.416;5.502;2023-04-30T10:49:03;100693.88;;;10.87;56.93
51369;BME280;37459;51.416;5.502;2023-04-30T10:51:46;100676.88;;;10.87;57.02
51369;BME280;37459;51.416;5.502;2023-04-30T10:54:14;100676.63;;;10.88;56.94
51369;BME280;37459;51.416;5.502;2023-04-30T10:56:43;100679.34;;;10.88;56.94
51369;BME280;37459;51.416;5.502;2023-04-30T10:59:10;100669.16;;;10.90;56.90
51369;BME280;37459;51.416;5.502;2023-04-30T11:04:19;100657.34;;;10.92;57.16
51369;BME280;37459;51.416;5.502;2023-04-30T11:06:48;100669.34;;;10.96;57.20
51369;BME280;37459;51.416;5.502;2023-04-30T11:09:21;100653.19;;;10.96;57.07
51369;BME280;37459;51.416;5.502;2023-04-30T11:11:50;100656.50;;;10.98;56.98
51369;BME280;37459;51.416;5.502;2023-04-30T11:14:26;100652.31;;;11.02;56.89
51369;BME280;37459;51.416;5.502;2023-04-30T11:16:56;100657.25;;;11.05;56.98
51369;BME280;37459;51.416;5.502;2023-04-30T11:19:25;100648.50;;;11.09;56.83
51369;BME280;37459;51.416;5.502;2023-04-30T11:24:49;100629.81;;;11.15;56.62
51369;BME280;37459;51.416;5.502;2023-04-30T11:27:18;100634.75;;;11.18;56.71
51369;BME280;37459;51.416;5.502;2023-04-30T11:29:45;100634.09;;;11.22;56.88
51369;BME280;37459;51.416;5.502;2023-04-30T11:32:11;100629.31;;;11.24;56.62
51369;BME280;37459;51.416;5.502;2023-04-30T11:34:40;100630.53;;;11.28;56.60
51369;BME280;37459;51.416;5.502;2023-04-30T11:37:08;100619.28;;;11.31;56.42
51369;BME280;37459;51.416;5.502;2023-04-30T11:39:36;100624.00;;;11.36;56.56
51369;BME280;37459;51.416;5.502;2023-04-30T11:42:03;100614.88;;;11.37;56.50
51369;BME280;37459;51.416;5.502;2023-04-30T11:44:29;100614.22;;;11.42;56.51
51369;BME280;37459;51.416;5.502;2023-04-30T11:46:56;100616.47;;;11.45;56.50
51369;BME280;37459;51.416;5.502;2023-04-30T11:49:22;100609.56;;;11.49;56.35
51369;BME280;37459;51.416;5.502;2023-04-30T11:51:50;100613.50;;;11.53;56.28
51369;BME280;37459;51.416;5.502;2023-04-30T11:54:17;100608.91;;;11.54;56.40
51369;BME280;37459;51.416;5.502;2023-04-30T11:56:44;100602.25;;;11.56;56.47
51369;BME280;37459;51.416;5.502;2023-04-30T11:59:12;100600.78;;;11.60;56.27
51369;BME280;37459;51.416;5.502;2023-04-30T12:01:39;100605.72;;;11.63;56.30
51369;BME280;37459;51.416;5.502;2023-04-30T12:04:05;100599.03;;;11.66;56.07
51369;BME280;37459;51.416;5.502;2023-04-30T12:06:33;100593.22;;;11.69;56.42
51369;BME280;37459;51.416;5.502;2023-04-30T12:09:02;100593.81;;;11.71;56.17
51369;BME280;37459;51.416;5.502;2023-04-30T12:11:31;100599.56;;;11.75;56.28
51369;BME280;37459;51.416;5.502;2023-04-30T12:14:00;100598.53;;;11.76;56.22
51369;BME280;37459;51.416;5.502;2023-04-30T12:16:27;100597.25;;;11.78;56.05
51369;BME280;37459;51.416;5.502;2023-04-30T12:18:54;100596.81;;;11.81;56.17
51369;BME280;37459;51.416;5.502;2023-04-30T12:21:20;100591.19;;;11.83;55.95
51369;BME280;37459;51.416;5.502;2023-04-30T12:23:47;100590.50;;;11.87;55.92
51369;BME280;37459;51.416;5.502;2023-04-30T12:26:15;100591.78;;;11.85;56.11
51369;BME280;37459;51.416;5.502;2023-04-30T12:28:42;100589.09;;;11.85;56.16
51369;BME280;37459;51.416;5.502;2023-04-30T12:31:08;100594.50;;;11.85;56.35
51369;BME280;37459;51.416;5.502;2023-04-30T12:33:35;100595.09;;;11.87;56.01
51369;BME280;37459;51.416;5.502;2023-04-30T12:36:01;100584.28;;;11.87;56.21
51369;BME280;37459;51.416;5.502;2023-04-30T12:38:27;100576.81;;;11.89;56.09
51369;BME280;37459;51.416;5.502;2023-04-30T12:40:54;100571.41;;;11.89;55.99
51369;BME280;37459;51.416;5.502;2023-04-30T12:43:22;100571.41;;;11.89;56.06
51369;BME280;37459;51.416;5.502;2023-04-30T12:45:49;100573.88;;;11.90;56.08
51369;BME280;37459;51.416;5.502;2023-04-30T12:48:20;100570.94;;;11.92;56.14
51369;BME280;37459;51.416;5.502;2023-04-30T12:50:47;100565.53;;;11.92;56.13
51369;BME280;37459;51.416;5.502;2023-04-30T12:53:14;100566.16;;;11.94;56.13
51369;BME280;37459;51.416;5.502;2023-04-30T12:55:40;100563.22;;;11.96;55.96
51369;BME280;37459;51.416;5.502;2023-04-30T12:58:07;100565.72;;;11.97;56.14
51369;BME280;37459;51.416;5.502;2023-04-30T13:00:45;100556.75;;;11.97;56.08
51369;BME280;37459;51.416;5.502;2023-04-30T13:03:12;100562.16;;;11.97;56.25
51369;BME280;37459;51.416;5.502;2023-04-30T13:05:39;100560.31;;;11.97;56.06
51369;BME280;37459;51.416;5.502;2023-04-30T13:08:06;100555.50;;;11.99;56.05
51369;BME280;37459;51.416;5.502;2023-04-30T13:10:33;100542.22;;;11.98;56.11
51369;BME280;37459;51.416;5.502;2023-04-30T13:12:59;100540.56;;;11.97;56.02
51369;BME280;37459;51.416;5.502;2023-04-30T13:15:26;100538.91;;;11.96;56.13
51369;BME280;37459;51.416;5.502;2023-04-30T13:17:54;100534.34;;;11.96;55.93
51369;BME280;37459;51.416;5.502;2023-04-30T13:20:20;100530.59;;;11.97;55.96
51369;BME280;37459;51.416;5.502;2023-04-30T13:22:48;100525.19;;;11.97;56.15
51369;BME280;37459;51.416;5.502;2023-04-30T13:25:15;100534.72;;;12.00;55.96
51369;BME280;37459;51.416;5.502;2023-04-30T13:27:41;100525.53;;;12.01;55.90
51369;BME280;37459;51.416;5.502;2023-04-30T13:30:08;100512.84;;;12.01;55.94
51369;BME280;37459;51.416;5.502;2023-04-30T13:32:35;100520.16;;;12.01;56.16
51369;BME280;37459;51.416;5.502;2023-04-30T13:35:03;100522.63;;;12.02;55.87
51369;BME280;37459;51.416;5.502;2023-04-30T13:37:29;100528.03;;;12.02;55.90
51369;BME280;37459;51.416;5.502;2023-04-30T13:39:56;100520.97;;;12.01;55.80
51369;BME280;37459;51.416;5.502;2023-04-30T13:42:24;100512.84;;;12.01;56.03
51369;BME280;37459;51.416;5.502;2023-04-30T13:44:50;100517.22;;;12.02;55.71
51369;BME280;37459;51.416;5.502;2023-04-30T13:47:17;100513.47;;;12.03;55.96
51369;BME280;37459;51.416;5.502;2023-04-30T13:49:43;100514.53;;;12.02;55.79
51369;BME280;37459;51.416;5.502;2023-04-30T13:52:11;100518.84;;;12.03;55.84
51369;BME280;37459;51.416;5.502;2023-04-30T13:54:37;100515.94;;;12.05;55.81
51369;BME280;37459;51.416;5.502;2023-04-30T13:57:04;100511.59;;;12.04;56.14
51369;BME280;37459;51.416;5.502;2023-04-30T13:59:31;100504.31;;;12.04;56.05
51369;BME280;37459;51.416;5.502;2023-04-30T14:01:57;100501.84;;;12.03;55.78
51369;BME280;37459;51.416;5.502;2023-04-30T14:04:24;100497.25;;;12.03;55.92
51369;BME280;37459;51.416;5.502;2023-04-30T14:06:50;100494.31;;;12.05;55.53
51369;BME280;37459;51.416;5.502;2023-04-30T14:09:21;100495.13;;;12.05;55.48
51369;BME280;37459;51.416;5.502;2023-04-30T14:11:48;100486.44;;;12.03;55.59
51369;BME280;37459;51.416;5.502;2023-04-30T14:14:15;100482.47;;;12.06;55.68
51369;BME280;37459;51.416;5.502;2023-04-30T14:16:42;100492.00;;;12.08;55.54
51369;BME280;37459;51.416;5.502;2023-04-30T14:19:08;100484.94;;;12.07;55.70
51369;BME280;37459;51.416;5.502;2023-04-30T14:21:35;100484.94;;;12.07;55.66
51369;BME280;37459;51.416;5.502;2023-04-30T14:24:01;100477.69;;;12.08;55.73
51369;BME280;37459;51.416;5.502;2023-04-30T14:26:29;100483.91;;;12.08;55.60
51369;BME280;37459;51.416;5.502;2023-04-30T14:28:55;100483.91;;;12.08;55.51
51369;BME280;37459;51.416;5.502;2023-04-30T14:31:22;100479.53;;;12.07;55.50
51369;BME280;37459;51.416;5.502;2023-04-30T14:33:48;100484.94;;;12.07;55.40
51369;BME280;37459;51.416;5.502;2023-04-30T14:36:15;100481.78;;;12.10;55.46
51369;BME280;37459;51.416;5.502;2023-04-30T14:38:42;100477.44;;;12.09;55.36
51369;BME280;37459;51.416;5.502;2023-04-30T14:41:08;100476.38;;;12.10;55.33
51369;BME280;37459;51.416;5.502;2023-04-30T14:43:36;100474.72;;;12.09;55.54
51369;BME280;37459;51.416;5.502;2023-04-30T14:46:02;100480.13;;;12.09;55.50
51369;BME280;37459;51.416;5.502;2023-04-30T14:48:29;100469.91;;;12.11;55.42
51369;BME280;37459;51.416;5.502;2023-04-30T14:50:56;100468.88;;;12.12;55.20
51369;BME280;37459;51.416;5.502;2023-04-30T14:53:23;100465.09;;;12.13;55.29
51369;BME280;37459;51.416;5.502;2023-04-30T14:55:49;100456.41;;;12.11;55.51
51369;BME280;37459;51.416;5.502;2023-04-30T14:58:16;100464.88;;;12.15;55.04
51369;BME280;37459;51.416;5.502;2023-04-30T15:00:45;100460.91;;;12.18;55.18
51369;BME280;37459;51.416;5.502;2023-04-30T15:03:12;100459.69;;;12.13;55.32
51369;BME280;37459;51.416;5.502;2023-04-30T15:05:38;100450.56;;;12.15;55.14
51369;BME280;37459;51.416;5.502;2023-04-30T15:08:05;100455.72;;;12.16;55.17
51369;BME280;37459;51.416;5.502;2023-04-30T15:10:31;100443.88;;;12.17;54.98
51369;BME280;37459;51.416;5.502;2023-04-30T15:12:58;100442.19;;;12.16;55.09
51369;BME280;37459;51.416;5.502;2023-04-30T15:15:24;100435.97;;;12.16;55.35
51369;BME280;37459;51.416;5.502;2023-04-30T15:17:55;100432.25;;;12.17;55.16
51369;BME280;37459;51.416;5.502;2023-04-30T15:20:21;100440.91;;;12.19;55.37
51369;BME280;37459;51.416;5.502;2023-04-30T15:22:48;100437.66;;;12.17;55.26
51369;BME280;37459;51.416;5.502;2023-04-30T15:25:14;100436.56;;;12.18;55.01
51369;BME280;37459;51.416;5.502;2023-04-30T15:27:41;100439.88;;;12.20;55.10
51369;BME280;37459;51.416;5.502;2023-04-30T15:30:08;100437.16;;;12.20;55.31
51369;BME280;37459;51.416;5.502;2023-04-30T15:32:35;100431.78;;;12.20;55.06
51369;BME280;37459;51.416;5.502;2023-04-30T15:35:03;100430.94;;;12.19;55.10
51369;BME280;37459;51.416;5.502;2023-04-30T15:37:29;100433.41;;;12.21;55.03
51369;BME280;37459;51.416;5.502;2023-04-30T15:39:56;100435.06;;;12.22;55.04
51369;BME280;37459;51.416;5.502;2023-04-30T15:42:22;100427.19;;;12.20;54.95
51369;BME280;37459;51.416;5.502;2023-04-30T15:44:49;100431.78;;;12.20;54.99
51369;BME280;37459;51.416;5.502;2023-04-30T15:47:16;100434.25;;;12.21;55.12
51369;BME280;37459;51.416;5.502;2023-04-30T15:49:42;100419.06;;;12.20;55.08
51369;BME280;37459;51.416;5.502;2023-04-30T15:52:10;100416.16;;;12.22;55.08
51369;BME280;37459;51.416;5.502;2023-04-30T15:54:37;100411.78;;;12.21;55.21
51369;BME280;37459;51.416;5.502;2023-04-30T15:57:03;100411.78;;;12.21;55.11
51369;BME280;37459;51.416;5.502;2023-04-30T15:59:29;100408.03;;;12.22;55.05
51369;BME280;37459;51.416;5.502;2023-04-30T16:01:56;100404.28;;;12.23;55.12
51369;BME280;37459;51.416;5.502;2023-04-30T16:04:22;100404.53;;;12.21;54.92
51369;BME280;37459;51.416;5.502;2023-04-30T16:06:48;100404.28;;;12.23;54.87
51369;BME280;37459;51.416;5.502;2023-04-30T16:09:16;100404.88;;;12.25;55.12
51369;BME280;37459;51.416;5.502;2023-04-30T16:11:44;100400.53;;;12.24;55.01
51369;BME280;37459;51.416;5.502;2023-04-30T16:14:11;100396.16;;;12.23;54.97
51369;BME280;37459;51.416;5.502;2023-04-30T16:16:37;100394.31;;;12.23;55.01
51369;BME280;37459;51.416;5.502;2023-04-30T16:19:03;100393.47;;;12.23;55.07
51369;BME280;37459;51.416;5.502;2023-04-30T16:21:31;100399.72;;;12.23;55.15
51369;BME280;37459;51.416;5.502;2023-04-30T16:23:57;100390.53;;;12.24;55.60
51369;BME280;37459;51.416;5.502;2023-04-30T16:26:25;100392.66;;;12.22;55.19
51369;BME280;37459;51.416;5.502;2023-04-30T16:28:51;100379.47;;;12.14;55.25
51369;BME280;37459;51.416;5.502;2023-04-30T16:31:18;100393.00;;;12.26;55.20
51369;BME280;37459;51.416;5.502;2023-04-30T16:33:47;100384.31;;;12.24;55.25
51369;BME280;37459;51.416;5.502;2023-04-30T16:36:13;100386.78;;;12.25;55.19
51369;BME280;37459;51.416;5.502;2023-04-30T16:38:40;100388.91;;;12.23;55.26
51369;BME280;37459;51.416;5.502;2023-04-30T16:41:07;100377.25;;;12.23;55.27
51369;BME280;37459;51.416;5.502;2023-04-30T16:43:35;100382.66;;;12.23;55.35
51369;BME280;37459;51.416;5.502;2023-04-30T16:46:01;100379.34;;;12.21;55.48
51369;BME280;37459;51.416;5.502;2023-04-30T16:48:28;100383.50;;;12.23;55.36
51369;BME280;37459;51.416;5.502;2023-04-30T16:50:54;100375.84;;;12.20;55.43
51369;BME280;37459;51.416;5.502;2023-04-30T16:53:20;100368.53;;;12.21;55.63
51369;BME280;37459;51.416;5.502;2023-04-30T16:55:47;100374.81;;;12.21;55.33
51369;BME280;37459;51.416;5.502;2023-04-30T16:58:15;100368.31;;;12.22;55.48
51369;BME280;37459;51.416;5.502;2023-04-30T17:00:42;100370.22;;;12.22;55.37
51369;BME280;37459;51.416;5.502;2023-04-30T17:03:09;100367.28;;;12.23;55.57
51369;BME280;37459;51.416;5.502;2023-04-30T17:05:35;100366.44;;;12.23;55.67
51369;BME280;37459;51.416;5.502;2023-04-30T17:08:01;100365.63;;;12.22;55.75
51369;BME280;37459;51.416;5.502;2023-04-30T17:10:29;100361.03;;;12.23;55.72
51369;BME280;37459;51.416;5.502;2023-04-30T17:12:55;100360.44;;;12.21;55.87
51369;BME280;37459;51.416;5.502;2023-04-30T17:15:23;100356.09;;;12.20;55.70
51369;BME280;37459;51.416;5.502;2023-04-30T17:17:51;100362.09;;;12.22;55.76
51369;BME280;37459;51.416;5.502;2023-04-30T17:20:17;100354.00;;;12.22;56.00
51369;BME280;37459;51.416;5.502;2023-04-30T17:22:44;100350.69;;;12.20;55.83
51369;BME280;37459;51.416;5.502;2023-04-30T17:25:11;100352.34;;;12.21;55.96
51369;BME280;37459;51.416;5.502;2023-04-30T17:27:38;100348.59;;;12.22;55.73
51369;BME280;37459;51.416;5.502;2023-04-30T17:30:04;100345.28;;;12.20;56.00
51369;BME280;37459;51.416;5.502;2023-04-30T17:32:32;100345.28;;;12.20;56.01
51369;BME280;37459;51.416;5.502;2023-04-30T17:35:00;100340.94;;;12.19;55.96
51369;BME280;37459;51.416;5.502;2023-04-30T17:37:27;100350.69;;;12.20;55.73
51369;BME280;37459;51.416;5.502;2023-04-30T17:39:53;100344.72;;;12.18;55.95
51369;BME280;37459;51.416;5.502;2023-04-30T17:42:20;100337.41;;;12.18;55.85
51369;BME280;37459;51.416;5.502;2023-04-30T17:44:46;100347.41;;;12.18;56.10
51369;BME280;37459;51.416;5.502;2023-04-30T17:47:14;100344.72;;;12.18;56.00
51369;BME280;37459;51.416;5.502;2023-04-30T17:49:40;100347.41;;;12.18;55.95
51369;BME280;37459;51.416;5.502;2023-04-30T17:52:08;100345.78;;;12.17;55.88
51369;BME280;37459;51.416;5.502;2023-04-30T17:54:34;100345.19;;;12.15;55.90
51369;BME280;37459;51.416;5.502;2023-04-30T17:57:01;100344.13;;;12.16;55.99
51369;BME280;37459;51.416;5.502;2023-04-30T17:59:28;100335.19;;;12.15;56.03
51369;BME280;37459;51.416;5.502;2023-04-30T18:01:55;100333.31;;;12.16;56.23
51369;BME280;37459;51.416;5.502;2023-04-30T18:04:21;100334.97;;;12.17;56.12
51369;BME280;37459;51.416;5.502;2023-04-30T18:06:48;100327.91;;;12.16;56.02
51369;BME280;37459;51.416;5.502;2023-04-30T18:09:16;100339.91;;;12.20;56.02
51369;BME280;37459;51.416;5.502;2023-04-30T18:11:43;100330.38;;;12.17;56.04
51369;BME280;37459;51.416;5.502;2023-04-30T18:14:10;100330.38;;;12.17;56.25
51369;BME280;37459;51.416;5.502;2023-04-30T18:16:37;100322.50;;;12.16;56.17
51369;BME280;37459;51.416;5.502;2023-04-30T18:19:03;100324.16;;;12.17;56.13
51369;BME280;37459;51.416;5.502;2023-04-30T18:21:30;100326.84;;;12.17;56.29
51369;BME280;37459;51.416;5.502;2023-04-30T18:23:56;100323.56;;;12.15;56.26
51369;BME280;37459;51.416;5.502;2023-04-30T18:26:24;100322.50;;;12.16;56.47
51369;BME280;37459;51.416;5.502;2023-04-30T18:28:51;100326.28;;;12.15;56.00
51369;BME280;37459;51.416;5.502;2023-04-30T18:31:18;100333.31;;;12.16;56.23
51369;BME280;37459;51.416;5.502;2023-04-30T18:33:44;100329.56;;;12.17;56.29
51369;BME280;37459;51.416;5.502;2023-04-30T18:36:11;100326.00;;;12.16;56.37
51369;BME280;37459;51.416;5.502;2023-04-30T18:38:38;100324.59;;;12.13;56.34
51369;BME280;37459;51.416;5.502;2023-04-30T18:41:05;100318.03;;;12.09;56.33
51369;BME280;37459;51.416;5.502;2023-04-30T18:43:33;100315.91;;;12.11;56.45
51369;BME280;37459;51.416;5.502;2023-04-30T18:46:01;100325.44;;;12.14;56.34
51369;BME280;37459;51.416;5.502;2023-04-30T18:48:27;100325.09;;;12.10;56.37
51369;BME280;37459;51.416;5.502;2023-04-30T18:50:54;100322.13;;;12.12;56.27
51369;BME280;37459;51.416;5.502;2023-04-30T18:53:21;100326.72;;;12.11;56.38
51369;BME280;37459;51.416;5.502;2023-04-30T18:55:49;100321.31;;;12.11;56.44
51369;BME280;37459;51.416;5.502;2023-04-30T18:58:16;100325.09;;;12.10;56.80
51369;BME280;37459;51.416;5.502;2023-04-30T19:00:44;100319.69;;;12.10;56.51
51369;BME280;37459;51.416;5.502;2023-04-30T19:03:11;100326.94;;;12.10;56.47
51369;BME280;37459;51.416;5.502;2023-04-30T19:05:37;100324.50;;;12.08;56.53
51369;BME280;37459;51.416;5.502;2023-04-30T19:08:04;100324.50;;;12.08;56.50
51369;BME280;37459;51.416;5.502;2023-04-30T19:10:32;100322.00;;;12.07;56.41
51369;BME280;37459;51.416;5.502;2023-04-30T19:12:59;100323.91;;;12.06;56.40
51369;BME280;37459;51.416;5.502;2023-04-30T19:15:25;100323.91;;;12.06;56.42
51369;BME280;37459;51.416;5.502;2023-04-30T19:17:56;100324.13;;;12.05;56.47
51369;BME280;37459;51.416;5.502;2023-04-30T19:20:22;100330.59;;;12.04;56.40
51369;BME280;37459;51.416;5.502;2023-04-30T19:22:49;100328.00;;;12.09;56.54
51369;BME280;37459;51.416;5.502;2023-04-30T19:25:16;100334.22;;;12.09;56.71
51369;BME280;37459;51.416;5.502;2023-04-30T19:27:42;100329.91;;;12.20;56.75
51369;BME280;37459;51.416;5.502;2023-04-30T19:30:10;100336.59;;;12.18;56.90
51369;BME280;37459;51.416;5.502;2023-04-30T19:32:37;100338.72;;;12.16;57.02
51369;BME280;37459;51.416;5.502;2023-04-30T19:35:06;100334.13;;;12.16;57.40
51369;BME280;37459;51.416;5.502;2023-04-30T19:37:32;100328.38;;;12.12;57.47
51369;BME280;37459;51.416;5.502;2023-04-30T19:39:59;100339.78;;;12.15;57.41
51369;BME280;37459;51.416;5.502;2023-04-30T19:42:25;100340.22;;;12.11;57.53
51369;BME280;37459;51.416;5.502;2023-04-30T19:44:52;100332.94;;;12.12;57.41
51369;BME280;37459;51.416;5.502;2023-04-30T19:47:18;100332.13;;;12.11;57.66
51369;BME280;37459;51.416;5.502;2023-04-30T19:49:45;100331.53;;;12.09;57.66
51369;BME280;37459;51.416;5.502;2023-04-30T19:52:13;100329.66;;;12.10;57.86
51369;BME280;37459;51.416;5.502;2023-04-30T19:54:40;100328.81;;;12.09;57.90
51369;BME280;37459;51.416;5.502;2023-04-30T19:57:12;100332.13;;;12.11;57.35
51369;BME280;37459;51.416;5.502;2023-04-30T19:59:40;100323.44;;;12.09;57.90
51369;BME280;37459;51.416;5.502;2023-04-30T20:02:07;100325.91;;;12.11;57.97
51369;BME280;37459;51.416;5.502;2023-04-30T20:04:33;100325.91;;;12.11;58.23
51369;BME280;37459;51.416;5.502;2023-04-30T20:07:00;100327.41;;;12.07;57.92
51369;BME280;37459;51.416;5.502;2023-04-30T20:09:28;100333.78;;;12.12;57.58
51369;BME280;37459;51.416;5.502;2023-04-30T20:11:54;100325.31;;;12.09;58.09
51369;BME280;37459;51.416;5.502;2023-04-30T20:14:21;100316.38;;;12.08;58.11
51369;BME280;37459;51.416;5.502;2023-04-30T20:16:48;100324.50;;;12.08;58.30
51369;BME280;37459;51.416;5.502;2023-04-30T20:19:18;100315.78;;;12.06;58.79
51369;BME280;37459;51.416;5.502;2023-04-30T20:21:46;100325.91;;;12.11;58.67
51369;BME280;37459;51.416;5.502;2023-04-30T20:24:13;100317.44;;;12.07;58.70
51369;BME280;37459;51.416;5.502;2023-04-30T20:26:41;100320.13;;;12.07;58.67
51369;BME280;37459;51.416;5.502;2023-04-30T20:29:08;100323.44;;;12.09;58.94
51369;BME280;37459;51.416;5.502;2023-04-30T20:31:34;100316.38;;;12.08;58.75
51369;BME280;37459;51.416;5.502;2023-04-30T20:34:01;100310.63;;;12.05;58.70
51369;BME280;37459;51.416;5.502;2023-04-30T20:36:28;100312.88;;;12.08;59.02
51369;BME280;37459;51.416;5.502;2023-04-30T20:38:56;100318.03;;;12.09;58.99
51369;BME280;37459;51.416;5.502;2023-04-30T20:41:23;100315.78;;;12.06;59.65
51369;BME280;37459;51.416;5.502;2023-04-30T20:43:51;100314.72;;;12.07;59.51
51369;BME280;37459;51.416;5.502;2023-04-30T20:46:18;100311.44;;;12.05;59.62
51369;BME280;37459;51.416;5.502;2023-04-30T20:48:45;100309.56;;;12.06;59.63